createdAt,value
2018-03-03T00:02:20.858Z,31.03
2018-03-03T00:04:48.309Z,30.23
2018-03-03T00:07:16.750Z,26.90
2018-03-03T00:09:45.845Z,31.37
2018-03-03T00:12:13.382Z,26.40
2018-03-03T00:14:40.869Z,30.43
2018-03-03T00:17:08.391Z,27.83
2018-03-03T00:19:35.857Z,30.97
2018-03-03T00:22:03.355Z,27.17
2018-03-03T00:24:30.842Z,30.13
2018-03-03T00:26:59.011Z,26.03
2018-03-03T00:29:27.287Z,32.20
2018-03-03T00:31:54.736Z,26.43
2018-03-03T00:34:22.178Z,30.03
2018-03-03T00:36:49.686Z,26.90
2018-03-03T00:39:17.326Z,30.43
2018-03-03T00:41:44.770Z,29.23
2018-03-03T00:44:12.253Z,30.97
2018-03-03T00:46:39.731Z,30.33
2018-03-03T00:49:07.183Z,31.90
2018-03-03T00:51:34.626Z,31.03
2018-03-03T00:54:02.122Z,30.43
2018-03-03T00:56:29.578Z,28.57
2018-03-03T00:58:57.059Z,31.00
2018-03-03T01:01:24.516Z,31.70
2018-03-03T01:03:52.015Z,30.77
2018-03-03T01:06:19.472Z,31.07
2018-03-03T01:08:46.904Z,29.50
2018-03-03T01:11:14.382Z,30.83
2018-03-03T01:13:41.823Z,30.20
2018-03-03T01:16:14.292Z,31.37
2018-03-03T01:18:41.744Z,30.77
2018-03-03T01:21:09.228Z,31.73
2018-03-03T01:23:36.688Z,33.67
2018-03-03T01:26:04.153Z,31.50
2018-03-03T01:28:31.591Z,28.53
2018-03-03T01:30:59.098Z,32.77
2018-03-03T01:33:26.529Z,27.63
2018-03-03T01:35:54.005Z,31.77
2018-03-03T01:38:21.482Z,30.13
2018-03-03T01:40:48.923Z,30.53
2018-03-03T01:43:16.399Z,32.93
2018-03-03T01:45:43.832Z,30.00
2018-03-03T01:48:11.296Z,32.10
2018-03-03T01:50:38.760Z,31.07
2018-03-03T01:53:06.198Z,32.40
2018-03-03T01:55:33.661Z,31.07
2018-03-03T01:58:01.154Z,32.93
2018-03-03T02:00:28.654Z,29.70
2018-03-03T02:02:56.132Z,30.03
2018-03-03T02:05:23.592Z,31.27
2018-03-03T02:07:51.050Z,31.63
2018-03-03T02:10:18.548Z,31.97
2018-03-03T02:12:46.107Z,31.07
2018-03-03T02:15:13.539Z,30.93
2018-03-03T02:17:41.012Z,32.83
2018-03-03T02:20:08.460Z,31.93
2018-03-03T02:22:35.910Z,31.63
2018-03-03T02:25:03.457Z,29.53
2018-03-03T02:27:30.902Z,31.80
2018-03-03T02:29:58.390Z,33.03
2018-03-03T02:32:25.841Z,30.80
2018-03-03T02:34:53.305Z,31.77
2018-03-03T02:37:20.772Z,34.20
2018-03-03T02:39:48.238Z,32.70
2018-03-03T02:42:15.668Z,32.40
2018-03-03T02:44:43.111Z,32.43
2018-03-03T02:47:10.562Z,31.77
2018-03-03T02:49:37.994Z,32.57
2018-03-03T02:52:05.452Z,32.57
2018-03-03T02:54:32.894Z,31.53
2018-03-03T02:57:00.373Z,31.77
2018-03-03T02:59:27.809Z,31.20
2018-03-03T03:01:55.235Z,31.40
2018-03-03T03:04:22.668Z,32.70
2018-03-03T03:06:50.110Z,31.57
2018-03-03T03:09:17.596Z,34.97
2018-03-03T03:11:45.037Z,33.33
2018-03-03T03:14:12.577Z,32.73
2018-03-03T03:16:40.134Z,32.77
2018-03-03T03:19:07.534Z,34.80
2018-03-03T03:21:34.982Z,31.20
2018-03-03T03:24:02.436Z,33.17
2018-03-03T03:26:29.860Z,32.47
2018-03-03T03:28:57.291Z,32.83
2018-03-03T03:31:24.997Z,32.47
2018-03-03T03:33:52.460Z,33.00
2018-03-03T03:36:21.978Z,33.17
2018-03-03T03:38:49.898Z,32.93
2018-03-03T03:41:18.162Z,31.47
2018-03-03T03:43:45.650Z,32.40
2018-03-03T03:46:13.106Z,33.50
2018-03-03T03:48:40.542Z,32.87
2018-03-03T03:51:07.996Z,34.40
2018-03-03T03:53:35.446Z,32.43
2018-03-03T03:56:02.916Z,33.17
2018-03-03T03:58:30.407Z,33.17
2018-03-03T04:00:57.831Z,32.10
2018-03-03T04:03:25.290Z,33.87
2018-03-03T04:05:52.760Z,31.73
2018-03-03T04:08:20.231Z,34.63
2018-03-03T04:10:47.676Z,31.43
2018-03-03T04:13:15.132Z,33.53
2018-03-03T04:15:42.576Z,33.37
2018-03-03T04:18:10.068Z,33.67
2018-03-03T04:20:37.520Z,33.13
2018-03-03T04:23:05.000Z,33.33
2018-03-03T04:25:32.474Z,32.30
2018-03-03T04:27:59.914Z,31.83
2018-03-03T04:30:28.570Z,32.20
2018-03-03T04:32:56.063Z,33.60
2018-03-03T04:35:23.536Z,32.00
2018-03-03T04:37:51.012Z,34.73
2018-03-03T04:40:19.358Z,33.97
2018-03-03T04:42:46.832Z,33.70
2018-03-03T04:45:15.044Z,33.67
2018-03-03T04:47:42.512Z,32.87
2018-03-03T04:50:09.970Z,32.90
2018-03-03T04:52:37.427Z,34.50
2018-03-03T04:55:05.099Z,34.27
2018-03-03T04:57:32.906Z,33.30
2018-03-03T05:00:07.119Z,34.13
2018-03-03T05:02:40.178Z,33.87
2018-03-03T05:08:22.569Z,34.17
2018-03-03T05:10:50.432Z,33.20
2018-03-03T05:13:33.698Z,33.03
2018-03-03T05:19:08.468Z,34.77
2018-03-03T05:21:37.476Z,34.03
2018-03-03T05:27:25.291Z,33.20
2018-03-03T05:29:58.403Z,34.20
2018-03-03T05:35:42.360Z,33.67
2018-03-03T05:38:11.190Z,35.07
2018-03-03T05:40:44.264Z,35.03
2018-03-03T05:43:17.265Z,33.67
2018-03-03T05:45:50.399Z,35.03
2018-03-03T05:48:22.411Z,35.70
2018-03-03T05:50:55.611Z,32.87
2018-03-03T05:53:33.017Z,35.50
2018-03-03T05:58:58.426Z,32.77
2018-03-03T06:01:43.672Z,35.67
2018-03-03T06:04:15.186Z,32.63
2018-03-03T06:07:00.433Z,32.13
2018-03-03T06:09:28.754Z,36.37
2018-03-03T06:11:56.247Z,35.20
2018-03-03T06:14:23.737Z,33.07
2018-03-03T06:16:51.241Z,34.97
2018-03-03T06:19:18.771Z,34.33
2018-03-03T06:21:46.279Z,33.37
2018-03-03T06:24:13.765Z,33.40
2018-03-03T06:26:41.286Z,35.27
2018-03-03T06:29:08.761Z,35.70
2018-03-03T06:31:36.259Z,33.93
2018-03-03T06:34:04.128Z,34.17
2018-03-03T06:36:31.649Z,33.80
2018-03-03T06:38:59.141Z,35.67
2018-03-03T06:41:26.626Z,34.13
2018-03-03T06:43:54.128Z,34.63
2018-03-03T06:46:27.409Z,33.70
2018-03-03T06:48:54.926Z,33.83
2018-03-03T06:51:22.454Z,35.37
2018-03-03T06:53:49.964Z,34.40
2018-03-03T06:56:17.484Z,33.67
2018-03-03T06:58:45.003Z,34.67
2018-03-03T07:01:12.522Z,35.90
2018-03-03T07:03:40.022Z,34.80
2018-03-03T07:06:07.507Z,33.57
2018-03-03T07:08:34.983Z,34.43
2018-03-03T07:11:02.473Z,35.67
2018-03-03T07:13:29.929Z,34.00
2018-03-03T07:15:57.465Z,34.07
2018-03-03T07:18:24.872Z,34.03
2018-03-03T07:20:52.375Z,34.53
2018-03-03T07:23:19.822Z,33.40
2018-03-03T07:25:47.271Z,35.30
2018-03-03T07:28:14.750Z,37.60
2018-03-03T07:30:42.178Z,36.53
2018-03-03T07:33:09.650Z,35.73
2018-03-03T07:35:37.088Z,35.83
2018-03-03T07:38:04.523Z,35.07
2018-03-03T07:40:34.063Z,36.40
2018-03-03T07:43:02.385Z,35.03
2018-03-03T07:45:31.572Z,35.70
2018-03-03T07:47:59.003Z,34.80
2018-03-03T07:50:26.451Z,37.27
2018-03-03T07:52:53.911Z,34.83
2018-03-03T07:55:21.357Z,36.77
2018-03-03T07:57:49.115Z,36.33
2018-03-03T08:00:17.203Z,37.00
2018-03-03T08:02:44.747Z,37.13
2018-03-03T08:05:12.260Z,35.20
2018-03-03T08:07:39.742Z,36.33
2018-03-03T08:10:07.263Z,38.60
2018-03-03T08:12:34.767Z,37.77
2018-03-03T08:15:02.267Z,38.23
2018-03-03T08:17:29.755Z,36.57
2018-03-03T08:19:57.199Z,36.53
2018-03-03T08:22:24.641Z,38.50
2018-03-03T08:24:52.111Z,38.47
2018-03-03T08:27:19.567Z,38.07
2018-03-03T08:29:47.043Z,39.03
2018-03-03T08:32:14.509Z,38.70
2018-03-03T08:34:41.977Z,37.93
2018-03-03T08:37:09.465Z,35.83
2018-03-03T08:39:36.976Z,38.73
2018-03-03T08:42:04.469Z,40.83
2018-03-03T08:44:31.931Z,39.33
2018-03-03T08:46:59.395Z,36.13
2018-03-03T08:49:26.853Z,37.33
2018-03-03T08:51:54.330Z,38.60
2018-03-03T08:54:21.802Z,38.70
2018-03-03T08:56:54.153Z,40.60
2018-03-03T08:59:21.609Z,37.70
2018-03-03T09:01:49.084Z,37.33
2018-03-03T09:04:16.593Z,39.97
2018-03-03T09:06:44.067Z,38.30
2018-03-03T09:09:11.549Z,36.60
2018-03-03T09:11:39.013Z,34.40
2018-03-03T09:14:06.459Z,39.30
2018-03-03T09:16:33.957Z,34.47
2018-03-03T09:19:01.436Z,39.73
2018-03-03T09:21:28.942Z,34.23
2018-03-03T09:23:56.449Z,38.37
2018-03-03T09:26:23.937Z,34.20
2018-03-03T09:28:51.482Z,37.93
2018-03-03T09:31:18.927Z,33.17
2018-03-03T09:33:46.421Z,36.73
2018-03-03T09:36:13.916Z,30.33
2018-03-03T09:38:41.444Z,31.37
2018-03-03T09:41:08.915Z,32.47
2018-03-03T09:43:36.431Z,29.30
2018-03-03T09:46:03.882Z,31.33
2018-03-03T09:48:31.343Z,30.27
2018-03-03T09:50:58.843Z,32.67
2018-03-03T09:53:26.431Z,30.60
2018-03-03T09:55:53.930Z,31.93
2018-03-03T09:58:21.385Z,31.87
2018-03-03T10:00:48.843Z,31.80
2018-03-03T10:03:16.406Z,31.37
2018-03-03T10:05:43.843Z,31.70
2018-03-03T10:08:11.326Z,31.60
2018-03-03T10:10:38.807Z,32.60
2018-03-03T10:13:06.332Z,32.43
2018-03-03T10:15:33.780Z,33.03
2018-03-03T10:18:01.269Z,32.33
2018-03-03T10:20:28.787Z,32.93
2018-03-03T10:22:56.236Z,34.00
2018-03-03T10:25:23.700Z,33.93
2018-03-03T10:27:51.167Z,33.80
2018-03-03T10:30:18.637Z,34.87
2018-03-03T10:32:46.151Z,33.83
2018-03-03T10:35:13.617Z,33.63
2018-03-03T10:37:41.090Z,33.57
2018-03-03T10:40:08.613Z,34.23
2018-03-03T10:42:36.080Z,34.73
2018-03-03T10:45:03.591Z,34.37
2018-03-03T10:47:31.097Z,33.90
2018-03-03T10:49:58.551Z,33.27
2018-03-03T10:52:26.033Z,33.70
2018-03-03T10:54:53.467Z,33.20
2018-03-03T10:57:20.952Z,31.90
2018-03-03T10:59:48.404Z,32.23
2018-03-03T11:02:15.997Z,32.03
2018-03-03T11:04:43.470Z,33.30
2018-03-03T11:07:10.975Z,31.97
2018-03-03T11:09:38.485Z,33.20
2018-03-03T11:12:06.052Z,32.77
2018-03-03T11:14:33.521Z,33.27
2018-03-03T11:17:01.108Z,31.80
2018-03-03T11:19:28.539Z,32.37
2018-03-03T11:21:56.041Z,31.40
2018-03-03T11:24:23.499Z,30.87
2018-03-03T11:26:51.050Z,31.73
2018-03-03T11:29:18.519Z,31.53
2018-03-03T11:31:46.039Z,30.70
2018-03-03T11:34:13.488Z,30.40
2018-03-03T11:36:40.984Z,29.70
2018-03-03T11:39:08.432Z,31.10
2018-03-03T11:41:36.157Z,29.93
2018-03-03T11:44:03.634Z,30.17
2018-03-03T11:46:31.090Z,31.20
2018-03-03T11:48:58.572Z,31.27
2018-03-03T11:51:26.059Z,31.57
2018-03-03T11:53:53.543Z,30.83
2018-03-03T11:56:21.086Z,30.30
2018-03-03T11:58:48.552Z,28.43
2018-03-03T12:01:16.002Z,29.37
2018-03-03T12:03:43.447Z,29.07
2018-03-03T12:06:10.923Z,30.17
2018-03-03T12:08:38.368Z,29.57
2018-03-03T12:11:05.903Z,30.67
2018-03-03T12:13:33.381Z,30.53
2018-03-03T12:16:00.885Z,28.40
2018-03-03T12:18:28.339Z,28.97
2018-03-03T12:20:55.861Z,29.77
2018-03-03T12:23:23.324Z,29.67
2018-03-03T12:25:50.793Z,29.93
2018-03-03T12:28:18.257Z,29.87
2018-03-03T12:30:45.768Z,30.03
2018-03-03T12:33:13.221Z,28.77
2018-03-03T12:35:40.757Z,28.33
2018-03-03T12:38:08.225Z,29.83
2018-03-03T12:40:35.685Z,29.50
2018-03-03T12:43:03.184Z,29.93
2018-03-03T12:45:30.705Z,28.07
2018-03-03T12:47:58.203Z,29.50
2018-03-03T12:50:25.679Z,29.60
2018-03-03T12:52:53.196Z,28.23
2018-03-03T12:55:20.667Z,28.90
2018-03-03T12:57:48.134Z,29.00
2018-03-03T13:00:15.707Z,29.80
2018-03-03T13:02:43.154Z,29.60
2018-03-03T13:05:10.600Z,30.77
2018-03-03T13:07:38.167Z,29.47
2018-03-03T13:10:05.639Z,28.30
2018-03-03T13:12:33.136Z,28.03
2018-03-03T13:15:00.702Z,29.00
2018-03-03T13:17:28.241Z,27.00
2018-03-03T13:19:55.716Z,26.47
2018-03-03T13:22:23.153Z,24.77
2018-03-03T13:24:51.677Z,24.37
2018-03-03T13:27:19.251Z,26.47
2018-03-03T13:29:46.724Z,27.20
2018-03-03T13:32:14.218Z,27.13
2018-03-03T13:34:41.709Z,25.77
2018-03-03T13:37:09.175Z,25.07
2018-03-03T13:39:36.629Z,24.43
2018-03-03T13:42:04.157Z,24.30
2018-03-03T13:44:31.635Z,23.97
2018-03-03T13:46:59.090Z,23.87
2018-03-03T13:49:26.671Z,23.67
2018-03-03T13:51:54.160Z,24.07
2018-03-03T13:54:21.746Z,23.90
2018-03-03T13:56:49.228Z,24.07
2018-03-03T13:59:16.663Z,24.00
2018-03-03T14:01:44.150Z,24.97
2018-03-03T14:04:11.689Z,24.67
2018-03-03T14:06:39.156Z,23.67
2018-03-03T14:09:06.658Z,22.53
2018-03-03T14:11:34.137Z,23.20
2018-03-03T14:14:01.693Z,22.17
2018-03-03T14:16:29.162Z,23.03
2018-03-03T14:18:56.696Z,23.43
2018-03-03T14:21:24.338Z,21.97
2018-03-03T14:23:52.068Z,23.37
2018-03-03T14:26:19.588Z,23.07
2018-03-03T14:28:47.082Z,23.17
2018-03-03T14:31:14.580Z,24.67
2018-03-03T14:33:42.692Z,24.70
2018-03-03T14:36:10.198Z,24.67
2018-03-03T14:38:37.681Z,24.80
2018-03-03T14:41:05.120Z,22.40
2018-03-03T14:43:32.664Z,22.53
2018-03-03T14:46:00.105Z,22.37
2018-03-03T14:48:27.563Z,22.20
2018-03-03T14:50:55.056Z,20.97
2018-03-03T14:53:22.512Z,21.30
2018-03-03T14:55:50.067Z,21.60
2018-03-03T14:58:17.526Z,22.10
2018-03-03T15:00:45.052Z,20.17
2018-03-03T15:03:12.514Z,21.83
2018-03-03T15:05:40.032Z,21.40
2018-03-03T15:08:07.504Z,21.73
2018-03-03T15:10:35.054Z,22.93
2018-03-03T15:13:02.576Z,22.30
2018-03-03T15:15:30.102Z,22.77
2018-03-03T15:17:57.588Z,22.83
2018-03-03T15:20:25.064Z,22.80
2018-03-03T15:22:52.522Z,21.57
2018-03-03T15:25:20.039Z,23.23
2018-03-03T15:27:47.568Z,23.50
2018-03-03T15:30:14.967Z,23.17
2018-03-03T15:32:42.447Z,24.43
2018-03-03T15:35:09.990Z,23.00
2018-03-03T15:37:37.468Z,23.47
2018-03-03T15:40:04.961Z,24.03
2018-03-03T15:42:32.445Z,21.60
2018-03-03T15:44:59.889Z,23.20
2018-03-03T15:47:27.343Z,21.87
2018-03-03T15:49:54.832Z,23.83
2018-03-03T15:52:22.269Z,23.47
2018-03-03T15:54:49.743Z,23.90
2018-03-03T15:57:17.301Z,22.87
2018-03-03T15:59:44.759Z,23.60
2018-03-03T16:02:12.313Z,22.63
2018-03-03T16:04:39.780Z,23.37
2018-03-03T16:07:07.325Z,24.27
2018-03-03T16:09:34.795Z,23.17
2018-03-03T16:12:02.274Z,24.83
2018-03-03T16:14:29.783Z,24.17
2018-03-03T16:16:57.425Z,25.67
2018-03-03T16:19:25.021Z,23.87
2018-03-03T16:21:52.575Z,24.83
2018-03-03T16:24:20.096Z,26.53
2018-03-03T16:26:47.577Z,24.13
2018-03-03T16:29:15.073Z,25.73
2018-03-03T16:31:42.567Z,26.50
2018-03-03T16:34:10.017Z,25.13
2018-03-03T16:36:37.515Z,24.77
2018-03-03T16:39:04.978Z,24.77
2018-03-03T16:41:32.426Z,24.50
2018-03-03T16:43:59.863Z,24.93
2018-03-03T16:46:27.339Z,25.10
2018-03-03T16:48:54.963Z,25.30
2018-03-03T16:51:23.199Z,24.70
2018-03-03T16:53:50.659Z,24.13
2018-03-03T16:56:18.167Z,23.67
2018-03-03T16:58:45.644Z,23.83
2018-03-03T17:01:13.105Z,24.07
2018-03-03T17:03:40.574Z,23.90
2018-03-03T17:06:08.032Z,25.00
2018-03-03T17:08:35.578Z,23.43
2018-03-03T17:11:03.034Z,24.10
2018-03-03T17:13:30.496Z,25.53
2018-03-03T17:15:57.972Z,24.07
2018-03-03T17:18:25.428Z,25.03
2018-03-03T17:20:52.895Z,25.20
2018-03-03T17:23:20.334Z,26.30
2018-03-03T17:25:47.802Z,26.00
2018-03-03T17:28:15.247Z,23.70
2018-03-03T17:30:42.700Z,24.93
2018-03-03T17:33:10.183Z,25.60
2018-03-03T17:35:37.641Z,25.53
2018-03-03T17:38:05.115Z,25.27
2018-03-03T17:40:32.571Z,24.77
2018-03-03T17:43:00.053Z,25.00
2018-03-03T17:45:27.587Z,25.43
2018-03-03T17:47:55.080Z,24.60
2018-03-03T17:50:22.616Z,26.53
2018-03-03T17:52:50.047Z,26.63
2018-03-03T17:55:18.008Z,25.03
2018-03-03T17:57:45.505Z,25.60
2018-03-03T18:00:12.975Z,25.90
2018-03-03T18:02:40.448Z,25.57
2018-03-03T18:05:07.896Z,24.70
2018-03-03T18:07:35.393Z,24.83
2018-03-03T18:10:02.870Z,25.50
2018-03-03T18:12:30.348Z,25.80
2018-03-03T18:14:57.801Z,26.63
2018-03-03T18:17:25.273Z,25.83
2018-03-03T18:19:52.750Z,26.10
2018-03-03T18:22:20.245Z,26.50
2018-03-03T18:24:47.687Z,26.67
2018-03-03T18:27:15.193Z,26.90
2018-03-03T18:29:42.676Z,25.87
2018-03-03T18:32:10.131Z,26.07
2018-03-03T18:34:37.618Z,27.13
2018-03-03T18:37:05.087Z,27.00
2018-03-03T18:39:32.535Z,28.57
2018-03-03T18:42:00.010Z,28.97
2018-03-03T18:44:27.555Z,28.50
2018-03-03T18:46:55.008Z,27.73
2018-03-03T18:49:22.500Z,27.57
2018-03-03T18:51:49.965Z,27.53
2018-03-03T18:54:17.474Z,27.27
2018-03-03T18:56:46.106Z,27.07
2018-03-03T18:59:13.635Z,27.13
2018-03-03T19:01:41.165Z,27.07
2018-03-03T19:04:08.608Z,27.97
2018-03-03T19:06:36.146Z,28.00
2018-03-03T19:09:03.624Z,28.57
2018-03-03T19:11:31.097Z,30.23
2018-03-03T19:13:58.572Z,28.07
2018-03-03T19:16:26.103Z,29.77
2018-03-03T19:18:53.567Z,29.07
2018-03-03T19:21:21.059Z,27.90
2018-03-03T19:23:48.528Z,28.50
2018-03-03T19:26:15.993Z,29.17
2018-03-03T19:28:43.593Z,29.27
2018-03-03T19:31:11.027Z,30.03
2018-03-03T19:33:38.524Z,28.90
2018-03-03T19:36:05.990Z,28.93
2018-03-03T19:38:33.451Z,28.70
2018-03-03T19:41:00.930Z,29.70
2018-03-03T19:43:28.380Z,29.83
2018-03-03T19:45:55.905Z,29.57
2018-03-03T19:48:24.041Z,27.67
2018-03-03T19:50:51.534Z,29.23
2018-03-03T19:53:20.151Z,28.57
2018-03-03T19:55:47.692Z,28.40
2018-03-03T19:58:15.200Z,27.67
2018-03-03T20:00:42.646Z,27.00
2018-03-03T20:03:10.111Z,28.53
2018-03-03T20:05:37.687Z,28.47
2018-03-03T20:08:05.184Z,26.67
2018-03-03T20:10:32.750Z,27.13
2018-03-03T20:13:00.209Z,27.23
2018-03-03T20:15:27.687Z,27.87
2018-03-03T20:17:55.129Z,27.90
2018-03-03T20:20:22.638Z,28.17
2018-03-03T20:22:50.092Z,29.13
2018-03-03T20:25:17.608Z,27.87
2018-03-03T20:27:45.059Z,26.13
2018-03-03T20:30:12.539Z,26.87
2018-03-03T20:32:40.035Z,29.80
2018-03-03T20:35:07.489Z,26.43
2018-03-03T20:37:34.938Z,26.57
2018-03-03T20:40:02.457Z,27.10
2018-03-03T20:42:29.901Z,27.33
2018-03-03T20:44:57.408Z,27.00
2018-03-03T20:47:24.994Z,27.07
2018-03-03T20:49:52.583Z,28.30
2018-03-03T20:52:20.003Z,25.67
2018-03-03T20:54:47.481Z,25.60
2018-03-03T20:57:14.962Z,26.10
2018-03-03T20:59:42.417Z,27.00
2018-03-03T21:02:09.913Z,26.00
2018-03-03T21:04:38.271Z,26.10
2018-03-03T21:07:05.752Z,25.67
2018-03-03T21:09:33.237Z,28.13
2018-03-03T21:12:13.382Z,26.23
2018-03-03T21:14:40.838Z,27.50
2018-03-03T21:17:08.321Z,28.63
2018-03-03T21:19:35.888Z,27.17
2018-03-03T21:22:03.374Z,26.50
2018-03-03T21:24:30.836Z,28.93
2018-03-03T21:26:58.445Z,28.53
2018-03-03T21:29:25.893Z,28.10
2018-03-03T21:31:53.431Z,29.53
2018-03-03T21:34:20.885Z,28.07
2018-03-03T21:36:49.233Z,28.07
2018-03-03T21:39:16.716Z,27.83
2018-03-03T21:41:44.199Z,28.03
2018-03-03T21:44:11.688Z,33.00
2018-03-03T21:46:39.296Z,26.40
2018-03-03T21:49:06.882Z,27.40
2018-03-03T21:51:34.471Z,28.57
2018-03-03T21:54:01.983Z,28.23
2018-03-03T21:56:29.559Z,28.57
2018-03-03T21:58:57.024Z,27.53
2018-03-03T22:01:24.525Z,28.87
2018-03-03T22:03:51.986Z,29.73
2018-03-03T22:06:24.466Z,33.03
2018-03-03T22:08:51.942Z,29.90
2018-03-03T22:11:19.431Z,30.20
2018-03-03T22:13:46.909Z,28.80
2018-03-03T22:16:14.367Z,29.30
2018-03-03T22:18:41.939Z,29.13
2018-03-03T22:21:09.392Z,30.53
2018-03-03T22:23:36.876Z,30.33
2018-03-03T22:26:04.330Z,30.63
2018-03-03T22:28:31.804Z,30.23
2018-03-03T22:30:59.300Z,30.20
2018-03-03T22:33:26.740Z,29.20
2018-03-03T22:35:54.233Z,31.03
2018-03-03T22:38:21.676Z,30.87
2018-03-03T22:40:49.142Z,28.87
2018-03-03T22:43:16.594Z,30.93
2018-03-03T22:45:44.983Z,29.37
2018-03-03T22:48:12.424Z,29.30
2018-03-03T22:50:39.887Z,29.40
2018-03-03T22:53:07.435Z,29.43
2018-03-03T22:55:34.898Z,29.87
2018-03-03T22:58:02.656Z,29.97
2018-03-03T23:00:31.186Z,28.80
2018-03-03T23:02:58.662Z,30.57
2018-03-03T23:05:26.099Z,30.20
2018-03-03T23:07:53.568Z,29.40
2018-03-03T23:10:21.010Z,29.17
2018-03-03T23:12:48.472Z,30.20
2018-03-03T23:15:15.923Z,30.87
2018-03-03T23:17:43.369Z,30.03
2018-03-03T23:20:10.901Z,30.43
2018-03-03T23:22:38.398Z,28.57
2018-03-03T23:25:05.935Z,30.67
2018-03-03T23:27:33.934Z,31.33
2018-03-03T23:30:01.393Z,29.53
2018-03-03T23:32:28.830Z,30.87
2018-03-03T23:34:56.308Z,31.43
2018-03-03T23:37:23.882Z,29.07
2018-03-03T23:39:51.335Z,28.83
2018-03-03T23:42:18.827Z,30.30
2018-03-03T23:44:46.291Z,30.67
2018-03-03T23:47:13.716Z,30.43
2018-03-03T23:49:41.178Z,29.23
2018-03-03T23:52:08.620Z,30.83
2018-03-03T23:54:36.097Z,30.83
2018-03-03T23:57:03.532Z,30.20
2018-03-03T23:59:30.965Z,34.17
